createdAt,value
2022-08-24T00:02:02.090Z,80.83
2022-08-24T00:04:32.110Z,80.89
2022-08-24T00:07:02.293Z,80.54
2022-08-24T00:09:32.049Z,81.48
2022-08-24T00:11:59.709Z,81.38
2022-08-24T00:14:27.193Z,82.42
2022-08-24T00:16:54.822Z,82.91
2022-08-24T00:19:22.458Z,84.02
2022-08-24T00:21:50.573Z,83.58
2022-08-24T00:24:18.669Z,84.16
2022-08-24T00:26:46.431Z,83.22
2022-08-24T00:29:15.531Z,82.33
2022-08-24T00:31:43.573Z,83.01
2022-08-24T00:34:13.378Z,84.37
2022-08-24T00:36:42.445Z,82.70
2022-08-24T00:39:12.644Z,83.34
2022-08-24T00:41:45.381Z,83.00
2022-08-24T00:44:14.255Z,83.89
2022-08-24T00:46:48.334Z,83.47
2022-08-24T00:49:24.802Z,83.23
2022-08-24T00:52:08.668Z,82.18
2022-08-24T00:54:46.066Z,83.67
2022-08-24T00:57:17.702Z,84.13
2022-08-24T00:59:55.617Z,86.13
2022-08-24T01:02:31.603Z,86.69
2022-08-24T01:05:02.978Z,86.96
2022-08-24T01:07:34.375Z,86.88
2022-08-24T01:10:08.568Z,86.95
2022-08-24T01:12:38.155Z,87.21
2022-08-24T01:15:07.889Z,87.01
2022-08-24T01:17:55.660Z,87.01
2022-08-24T01:20:26.321Z,88.55
2022-08-24T01:23:21.746Z,91.08
2022-08-24T01:25:50.142Z,90.64
2022-08-24T01:28:21.751Z,90.95
2022-08-24T01:30:55.768Z,91.56
2022-08-24T01:33:30.145Z,92.76
2022-08-24T01:36:28.148Z,92.62
2022-08-24T01:39:01.477Z,93.51
2022-08-24T01:41:29.447Z,95.22
2022-08-24T01:43:59.121Z,95.56
2022-08-24T01:46:28.817Z,94.68
2022-08-24T01:48:58.376Z,92.87
2022-08-24T01:51:30.371Z,90.29
2022-08-24T01:54:00.922Z,90.54
2022-08-24T01:56:29.436Z,91.19
2022-08-24T01:58:59.653Z,92.39
2022-08-24T02:01:30.635Z,91.57
2022-08-24T02:04:02.523Z,93.83
2022-08-24T02:06:30.353Z,95.72
2022-08-24T02:08:57.978Z,97.15
2022-08-24T02:11:29.207Z,98.35
2022-08-24T02:13:56.801Z,97.91
2022-08-24T02:16:24.687Z,97.11
2022-08-24T02:18:52.256Z,97.03
2022-08-24T02:21:22.361Z,97.38
2022-08-24T02:23:50.414Z,96.96
2022-08-24T02:26:18.722Z,98.81
2022-08-24T02:28:46.253Z,100.00
2022-08-24T02:31:17.615Z,100.00
2022-08-24T02:33:46.040Z,100.00
2022-08-24T02:36:25.639Z,100.00
2022-08-24T02:38:56.172Z,100.00
2022-08-24T02:41:25.718Z,100.00
2022-08-24T02:43:56.798Z,100.00
2022-08-24T02:46:28.268Z,98.39
2022-08-24T02:49:10.984Z,99.57
2022-08-24T02:51:44.621Z,100.00
2022-08-24T02:54:19.709Z,100.00
2022-08-24T02:56:50.239Z,100.00
2022-08-24T02:59:18.341Z,100.00
2022-08-24T03:01:47.050Z,100.00
2022-08-24T03:04:18.712Z,100.00
2022-08-24T03:06:48.463Z,100.00
2022-08-24T03:09:17.803Z,98.97
2022-08-24T03:11:45.760Z,98.86
2022-08-24T03:14:14.460Z,95.93
2022-08-24T03:16:42.602Z,95.28
2022-08-24T03:19:12.863Z,95.67
2022-08-24T03:21:42.947Z,95.31
2022-08-24T03:24:11.984Z,94.51
2022-08-24T03:26:44.055Z,95.25
2022-08-24T03:29:15.952Z,93.57
2022-08-24T03:31:45.001Z,94.65
2022-08-24T03:34:13.764Z,92.69
2022-08-24T03:36:48.031Z,92.88
2022-08-24T03:39:17.597Z,90.81
2022-08-24T03:41:46.896Z,89.87
2022-08-24T03:44:14.632Z,89.87
2022-08-24T03:46:42.339Z,89.88
2022-08-24T03:49:10.421Z,89.61
2022-08-24T03:51:39.144Z,91.79
2022-08-24T03:54:09.878Z,91.71
2022-08-24T03:56:38.071Z,90.41
2022-08-24T03:59:09.860Z,90.11
2022-08-24T04:01:43.353Z,91.18
2022-08-24T04:04:11.125Z,91.01
2022-08-24T04:06:40.484Z,90.06
2022-08-24T04:09:08.350Z,90.73
2022-08-24T04:11:41.565Z,91.47
2022-08-24T04:14:20.313Z,92.87
2022-08-24T04:16:58.926Z,91.86
2022-08-24T04:19:36.451Z,92.31
2022-08-24T04:22:04.327Z,94.00
2022-08-24T04:24:32.116Z,93.25
2022-08-24T04:26:59.815Z,93.80
2022-08-24T04:29:27.554Z,93.57
2022-08-24T04:31:55.944Z,94.75
2022-08-24T04:34:24.313Z,94.66
2022-08-24T04:36:53.541Z,93.88
2022-08-24T04:39:24.539Z,95.13
2022-08-24T04:42:12.326Z,95.78
2022-08-24T04:44:41.826Z,95.51
2022-08-24T04:47:13.048Z,93.25
2022-08-24T04:49:40.661Z,92.98
2022-08-24T04:52:08.602Z,93.14
2022-08-24T04:54:38.856Z,91.76
2022-08-24T04:57:13.463Z,93.14
2022-08-24T04:59:44.010Z,90.33
2022-08-24T05:02:16.135Z,94.04
2022-08-24T05:04:48.389Z,96.33
2022-08-24T05:07:18.660Z,96.52
2022-08-24T05:09:46.203Z,94.21
2022-08-24T05:12:16.714Z,95.09
2022-08-24T05:14:55.435Z,94.73
2022-08-24T05:17:23.445Z,94.28
2022-08-24T05:19:51.024Z,92.16
2022-08-24T05:22:19.402Z,89.17
2022-08-24T05:24:51.189Z,89.23
2022-08-24T05:27:19.504Z,92.59
2022-08-24T05:29:47.707Z,93.73
2022-08-24T05:32:17.758Z,88.61
2022-08-24T05:34:45.446Z,88.99
2022-08-24T05:37:13.069Z,88.80
2022-08-24T05:40:16.133Z,88.31
2022-08-24T05:42:48.543Z,91.27
2022-08-24T05:45:19.043Z,90.00
2022-08-24T05:47:46.713Z,85.07
2022-08-24T05:50:37.534Z,85.56
2022-08-24T05:53:05.626Z,80.91
2022-08-24T05:55:33.536Z,82.66
2022-08-24T05:58:04.277Z,80.24
2022-08-24T06:00:33.579Z,79.75
2022-08-24T06:03:01.240Z,79.74
2022-08-24T06:05:29.074Z,82.43
2022-08-24T06:07:57.947Z,77.68
2022-08-24T06:10:36.721Z,80.00
2022-08-24T06:13:06.287Z,81.27
2022-08-24T06:15:35.613Z,79.61
2022-08-24T06:18:04.659Z,79.16
2022-08-24T06:20:34.057Z,78.23
2022-08-24T06:23:03.731Z,79.43
2022-08-24T08:03:13.239Z,40.04
2022-08-24T08:22:12.592Z,34.73
2022-08-24T08:39:52.489Z,37.32
2022-08-24T09:32:42.893Z,32.96
2022-08-24T10:28:25.286Z,44.02
2022-08-24T10:31:03.176Z,44.12
2022-08-24T10:33:49.111Z,42.70
2022-08-24T10:36:52.170Z,46.70
2022-08-24T10:39:43.802Z,44.21
2022-08-24T10:43:05.411Z,45.98
2022-08-24T10:50:20.473Z,43.37
2022-08-24T10:53:21.701Z,43.59
2022-08-24T10:56:00.542Z,42.49
2022-08-24T10:58:49.010Z,40.28
2022-08-24T11:01:32.632Z,44.03
2022-08-24T11:04:11.131Z,45.31
2022-08-24T11:07:08.693Z,47.34
2022-08-24T11:09:55.925Z,46.83
2022-08-24T12:31:24.519Z,49.70
2022-08-24T15:09:16.620Z,43.62
2022-08-24T15:11:45.577Z,45.28
2022-08-24T15:18:25.574Z,47.46
2022-08-24T15:37:37.975Z,48.17
2022-08-24T16:01:04.304Z,50.09
2022-08-24T16:08:57.221Z,49.09
2022-08-24T16:11:57.522Z,48.66
2022-08-24T16:15:12.858Z,48.36
2022-08-24T16:19:17.838Z,47.25
2022-08-24T16:21:15.817Z,48.36
2022-08-24T16:24:01.496Z,48.29
2022-08-24T16:27:17.549Z,45.09
2022-08-24T16:37:56.146Z,49.84
2022-08-24T16:41:02.294Z,48.72
2022-08-24T16:45:10.618Z,50.42
2022-08-24T16:48:03.937Z,49.93
2022-08-24T16:50:39.708Z,49.60
2022-08-24T16:53:30.860Z,48.79
2022-08-24T16:56:23.258Z,49.15
2022-08-24T17:01:50.417Z,51.72
2022-08-24T17:04:18.114Z,51.53
2022-08-24T17:06:48.382Z,50.57
2022-08-24T17:09:24.498Z,51.77
2022-08-24T17:16:07.295Z,53.54
2022-08-24T17:18:37.395Z,56.78
2022-08-24T17:21:07.577Z,55.14
2022-08-24T17:23:36.170Z,58.49
2022-08-24T17:26:10.244Z,60.98
2022-08-24T17:28:54.646Z,61.79
2022-08-24T17:31:24.842Z,63.06
2022-08-24T17:33:53.285Z,63.49
2022-08-24T17:36:30.425Z,64.21
2022-08-24T18:06:00.072Z,69.10
2022-08-24T18:17:25.305Z,69.32
